Time;durP1;ratioP1;P1;durP2;ratioP2;P2;SDS_P1;SDS_P2;PMS_P1;PMS_P2;Temp;Humidity;BMP_temperature;BMP_pressure;BME280_temperature;BME280_humidity;BME280_pressure;Samples;Min_cycle;Max_cycle;Signal;HPM_P1;HPM_P2
2023/05/24 00:01:13;;;;;;;14.77;2.97;;;;;;;;;;4961027;29;20184;-73
2023/05/24 00:03:39;;;;;;;17.90;3.63;;;;;;;;;;4960701;29;20176;-73
2023/05/24 00:06:05;;;;;;;7.47;3.05;;;;;;;;;;4961161;29;20463;-73
2023/05/24 00:08:32;;;;;;;9.10;2.67;;;;;;;;;;4960219;29;20184;-74
2023/05/24 00:10:58;;;;;;;10.10;3.55;;;;;;;;;;4943385;29;20201;-73
2023/05/24 00:13:24;;;;;;;8.73;3.83;;;;;;;;;;4961096;29;20177;-73
2023/05/24 00:15:50;;;;;;;6.57;3.25;;;;;;;;;;4960415;29;20187;-73
2023/05/24 00:18:17;;;;;;;10.90;3.22;;;;;;;;;;4960963;29;20184;-73
2023/05/24 00:20:43;;;;;;;15.68;3.20;;;;;;;;;;4960450;29;20192;-73
2023/05/24 00:23:09;;;;;;;10.43;2.75;;;;;;;;;;4960418;29;20188;-73
2023/05/24 00:25:35;;;;;;;12.48;3.40;;;;;;;;;;4960282;29;20181;-74
2023/05/24 00:28:01;;;;;;;10.32;2.90;;;;;;;;;;4960585;29;20181;-73
2023/05/24 00:30:27;;;;;;;14.80;3.07;;;;;;;;;;4960739;29;20173;-73
2023/05/24 00:32:53;;;;;;;6.67;3.13;;;;;;;;;;4960016;29;20412;-73
2023/05/24 00:35:19;;;;;;;15.00;2.80;;;;;;;;;;4960315;29;20409;-73
2023/05/24 00:37:45;;;;;;;17.10;2.77;;;;;;;;;;4960344;29;20419;-74
2023/05/24 00:40:12;;;;;;;11.43;3.23;;;;;;;;;;4960324;29;20408;-74
2023/05/24 00:42:38;;;;;;;9.65;3.20;;;;;;;;;;4959932;29;20412;-74
2023/05/24 00:45:04;;;;;;;11.50;3.70;;;;;;;;;;4960198;29;20177;-73
2023/05/24 00:47:30;;;;;;;12.88;3.25;;;;;;;;;;4960221;29;20200;-73
2023/05/24 00:49:56;;;;;;;13.38;3.40;;;;;;;;;;4959609;29;20196;-73
2023/05/24 00:52:22;;;;;;;11.40;2.80;;;;;;;;;;4960008;29;20180;-73
2023/05/24 00:54:48;;;;;;;12.63;3.40;;;;;;;;;;4958970;29;20177;-73
2023/05/24 00:57:14;;;;;;;12.23;3.47;;;;;;;;;;4959251;28;20176;-73
2023/05/24 00:59:41;;;;;;;5.90;2.95;;;;;;;;;;4960076;29;20176;-73
2023/05/24 01:02:07;;;;;;;12.55;2.90;;;;;;;;;;4959724;29;20180;-73
2023/05/24 01:04:32;;;;;;;7.73;2.90;;;;;;;;;;4960001;29;20219;-76
2023/05/24 01:07:04;;;;;;;10.50;3.00;;;;;;;;;;4942629;29;20475;-73
2023/05/24 01:09:40;;;;;;;14.43;3.38;;;;;;;;;;4958971;29;20895;-73
2023/05/24 01:12:18;;;;;;;14.93;3.53;;;;;;;;;;4959790;29;20172;-73
2023/05/24 01:14:49;;;;;;;6.25;2.80;;;;;;;;;;4960539;29;20699;-73
2023/05/24 01:17:20;;;;;;;11.95;3.70;;;;;;;;;;4960546;29;20211;-73
2023/05/24 01:19:56;;;;;;;9.93;2.90;;;;;;;;;;4959954;29;20181;-74
2023/05/24 01:22:48;;;;;;;6.78;2.97;;;;;;;;;;4960029;29;20502;-73
2023/05/24 01:25:17;;;;;;;11.52;3.22;;;;;;;;;;4958389;29;20197;-73
2023/05/24 01:27:43;;;;;;;13.65;3.92;;;;;;;;;;4959230;29;20204;-74
2023/05/24 01:30:10;;;;;;;11.23;3.10;;;;;;;;;;4942497;29;20196;-74
2023/05/24 01:32:37;;;;;;;7.03;3.45;;;;;;;;;;4959764;29;20181;-74
2023/05/24 01:35:03;;;;;;;6.40;2.75;;;;;;;;;;4959983;29;20200;-73
2023/05/24 01:37:29;;;;;;;10.05;4.18;;;;;;;;;;4959885;29;20192;-73
2023/05/24 01:39:55;;;;;;;9.95;4.15;;;;;;;;;;4959325;29;20185;-73
2023/05/24 01:42:24;;;;;;;10.15;3.80;;;;;;;;;;4960467;29;20700;-72
2023/05/24 01:45:08;;;;;;;17.02;3.78;;;;;;;;;;4960168;29;20179;-72
2023/05/24 01:47:57;;;;;;;7.72;2.70;;;;;;;;;;4960387;29;20206;-73
2023/05/24 01:50:31;;;;;;;20.20;4.15;;;;;;;;;;4960250;29;20695;-72
2023/05/24 01:53:01;;;;;;;6.72;2.80;;;;;;;;;;4959473;29;20252;-73
2023/05/24 01:55:27;;;;;;;13.00;3.20;;;;;;;;;;4959965;29;20169;-72
2023/05/24 01:57:55;;;;;;;14.75;3.88;;;;;;;;;;4959748;29;20516;-73
2023/05/24 02:00:22;;;;;;;13.27;4.15;;;;;;;;;;4959660;29;20176;-72
2023/05/24 02:02:48;;;;;;;16.48;3.58;;;;;;;;;;4959754;29;20198;-73
2023/05/24 02:05:14;;;;;;;3.60;2.67;;;;;;;;;;4960013;29;20208;-72
2023/05/24 02:07:40;;;;;;;8.90;3.60;;;;;;;;;;4960545;28;20208;-73
2023/05/24 02:10:06;;;;;;;9.30;3.55;;;;;;;;;;4945627;29;20915;-73
2023/05/24 02:12:32;;;;;;;9.63;3.85;;;;;;;;;;4963301;29;20519;-72
2023/05/24 02:14:59;;;;;;;11.13;2.93;;;;;;;;;;4963111;29;20256;-72
2023/05/24 02:17:25;;;;;;;10.32;3.13;;;;;;;;;;4963096;29;20458;-72
2023/05/24 02:19:51;;;;;;;8.48;4.03;;;;;;;;;;4962391;29;20563;-73
2023/05/24 02:22:20;;;;;;;9.85;3.45;;;;;;;;;;4962928;29;20199;-72
2023/05/24 02:24:47;;;;;;;8.90;3.70;;;;;;;;;;4963173;29;20252;-73
2023/05/24 02:27:13;;;;;;;17.88;3.70;;;;;;;;;;4946035;29;20228;-73
2023/05/24 02:29:40;;;;;;;16.13;3.65;;;;;;;;;;4962585;29;20182;-75
2023/05/24 02:32:06;;;;;;;7.15;3.35;;;;;;;;;;4962878;29;20182;-72
2023/05/24 02:34:32;;;;;;;14.30;4.13;;;;;;;;;;4962623;29;20173;-72
2023/05/24 02:36:58;;;;;;;9.63;3.63;;;;;;;;;;4962086;29;20230;-72
2023/05/24 02:39:24;;;;;;;11.88;3.63;;;;;;;;;;4962948;29;20569;-72
2023/05/24 02:41:51;;;;;;;12.20;3.25;;;;;;;;;;4962446;29;20495;-72
2023/05/24 02:44:17;;;;;;;8.07;3.30;;;;;;;;;;4962724;29;20184;-72
2023/05/24 02:46:43;;;;;;;8.02;3.13;;;;;;;;;;4961892;29;20758;-72
2023/05/24 02:49:09;;;;;;;6.47;3.00;;;;;;;;;;4962827;29;20176;-72
2023/05/24 02:51:35;;;;;;;11.80;3.65;;;;;;;;;;4962651;29;20242;-72
2023/05/24 02:54:02;;;;;;;8.25;3.47;;;;;;;;;;4945045;29;20499;-72
2023/05/24 02:56:28;;;;;;;12.40;4.00;;;;;;;;;;4962327;29;20193;-72
2023/05/24 02:58:54;;;;;;;15.23;4.03;;;;;;;;;;4962269;29;20718;-73
2023/05/24 03:01:20;;;;;;;12.05;3.80;;;;;;;;;;4961646;29;20192;-72
2023/05/24 03:03:47;;;;;;;12.50;3.67;;;;;;;;;;4962396;29;20175;-73
2023/05/24 03:06:14;;;;;;;16.80;3.90;;;;;;;;;;4961792;29;20208;-73
2023/05/24 03:08:40;;;;;;;10.30;3.35;;;;;;;;;;4962506;29;20495;-74
2023/05/24 03:11:06;;;;;;;14.60;3.83;;;;;;;;;;4962148;29;20180;-72
2023/05/24 03:13:32;;;;;;;11.18;3.50;;;;;;;;;;4962833;29;20175;-72
2023/05/24 03:15:58;;;;;;;7.70;3.75;;;;;;;;;;4962120;29;20187;-74
2023/05/24 03:18:24;;;;;;;8.95;3.30;;;;;;;;;;4962392;29;20179;-75
2023/05/24 03:20:50;;;;;;;15.98;4.40;;;;;;;;;;4960998;28;20181;-72
2023/05/24 03:23:16;;;;;;;18.70;3.90;;;;;;;;;;4962016;29;20184;-73
2023/05/24 03:25:42;;;;;;;14.25;4.25;;;;;;;;;;4961583;29;20178;-74
2023/05/24 03:28:08;;;;;;;8.55;3.35;;;;;;;;;;4962198;29;20649;-73
2023/05/24 03:30:35;;;;;;;7.20;3.55;;;;;;;;;;4962208;29;20176;-72
2023/05/24 03:33:01;;;;;;;17.90;4.25;;;;;;;;;;4962121;29;20260;-72
2023/05/24 03:35:27;;;;;;;14.35;3.88;;;;;;;;;;4962133;29;20180;-73
2023/05/24 03:37:53;;;;;;;7.35;3.45;;;;;;;;;;4961526;29;20183;-73
2023/05/24 03:40:19;;;;;;;10.20;4.32;;;;;;;;;;4961823;29;20195;-73
2023/05/24 03:42:45;;;;;;;8.98;3.60;;;;;;;;;;4961139;29;20228;-73
2023/05/24 03:45:11;;;;;;;14.73;4.47;;;;;;;;;;4961599;29;20173;-73
2023/05/24 03:47:37;;;;;;;15.80;4.10;;;;;;;;;;4961920;29;20680;-73
2023/05/24 03:50:03;;;;;;;14.68;4.70;;;;;;;;;;4961056;29;20280;-74
2023/05/24 03:52:29;;;;;;;16.00;4.60;;;;;;;;;;4961884;29;20176;-74
2023/05/24 03:54:55;;;;;;;17.58;5.30;;;;;;;;;;4961304;29;20628;-74
2023/05/24 03:57:21;;;;;;;11.70;4.70;;;;;;;;;;4961147;29;20196;-73
2023/05/24 03:59:47;;;;;;;8.73;4.00;;;;;;;;;;4961354;29;20622;-74
2023/05/24 04:02:13;;;;;;;11.25;4.18;;;;;;;;;;4961362;29;20184;-74
2023/05/24 04:04:39;;;;;;;8.00;4.28;;;;;;;;;;4961872;29;20173;-73
2023/05/24 04:07:06;;;;;;;8.70;4.25;;;;;;;;;;4961725;29;20227;-73
2023/05/24 04:09:32;;;;;;;8.88;3.85;;;;;;;;;;4961139;29;20229;-73
2023/05/24 04:11:58;;;;;;;9.65;4.05;;;;;;;;;;4960954;29;20257;-74
2023/05/24 04:14:24;;;;;;;17.35;5.32;;;;;;;;;;4961186;29;20201;-73
2023/05/24 04:16:52;;;;;;;12.18;4.47;;;;;;;;;;4961159;29;20656;-74
2023/05/24 04:19:18;;;;;;;13.15;4.40;;;;;;;;;;4961159;29;20189;-73
2023/05/24 04:21:44;;;;;;;8.52;4.22;;;;;;;;;;4961204;29;20188;-75
2023/05/24 04:24:10;;;;;;;11.75;5.90;;;;;;;;;;4961112;29;20177;-74
2023/05/24 04:26:37;;;;;;;12.18;5.78;;;;;;;;;;4960683;29;20204;-73
2023/05/24 04:29:03;;;;;;;7.32;4.40;;;;;;;;;;4960599;29;20169;-74
2023/05/24 04:31:32;;;;;;;18.27;5.78;;;;;;;;;;4960326;28;20169;-73
2023/05/24 04:33:58;;;;;;;9.30;5.35;;;;;;;;;;4960598;29;20179;-73
2023/05/24 04:36:24;;;;;;;18.40;5.80;;;;;;;;;;4960945;29;20559;-73
2023/05/24 04:38:52;;;;;;;19.27;5.63;;;;;;;;;;4960911;29;20195;-74
2023/05/24 04:41:18;;;;;;;13.60;5.50;;;;;;;;;;4960827;29;20179;-74
2023/05/24 04:43:44;;;;;;;21.50;5.43;;;;;;;;;;4960698;29;20181;-74
2023/05/24 04:46:10;;;;;;;17.00;6.05;;;;;;;;;;4960394;29;20260;-74
2023/05/24 04:48:36;;;;;;;13.30;5.90;;;;;;;;;;4960654;29;20227;-74
2023/05/24 04:51:03;;;;;;;14.60;6.30;;;;;;;;;;4959834;29;20216;-74
2023/05/24 04:53:29;;;;;;;24.60;6.43;;;;;;;;;;4960961;29;20178;-73
2023/05/24 04:55:55;;;;;;;14.88;5.65;;;;;;;;;;4960444;29;20202;-73
2023/05/24 04:58:21;;;;;;;10.88;5.60;;;;;;;;;;4960439;29;20169;-74
2023/05/24 05:00:47;;;;;;;10.88;4.45;;;;;;;;;;4960105;29;20173;-75
2023/05/24 05:03:13;;;;;;;11.18;5.95;;;;;;;;;;4960648;29;20551;-74
2023/05/24 05:05:39;;;;;;;10.02;5.25;;;;;;;;;;4960107;29;20169;-74
2023/05/24 05:08:05;;;;;;;18.75;5.40;;;;;;;;;;4960087;29;20680;-74
2023/05/24 05:10:31;;;;;;;18.30;5.80;;;;;;;;;;4960730;29;20228;-73
2023/05/24 05:12:57;;;;;;;21.25;6.07;;;;;;;;;;4960586;29;20176;-74
2023/05/24 05:15:24;;;;;;;23.13;6.72;;;;;;;;;;4957340;29;20177;-75
2023/05/24 05:17:50;;;;;;;17.30;6.82;;;;;;;;;;4959895;29;20177;-76
2023/05/24 05:20:16;;;;;;;18.77;6.60;;;;;;;;;;4960162;29;20183;-75
2023/05/24 05:22:46;;;;;;;24.35;7.22;;;;;;;;;;4960577;29;20365;-75
2023/05/24 05:25:12;;;;;;;14.57;6.13;;;;;;;;;;4958686;29;20177;-76
2023/05/24 05:27:38;;;;;;;24.17;6.35;;;;;;;;;;4958871;29;20204;-75
2023/05/24 05:30:04;;;;;;;19.30;5.90;;;;;;;;;;4959453;29;20537;-76
2023/05/24 05:32:30;;;;;;;15.82;6.68;;;;;;;;;;4959922;29;20227;-75
2023/05/24 05:34:56;;;;;;;30.17;6.43;;;;;;;;;;4959854;29;20227;-75
2023/05/24 05:37:22;;;;;;;25.45;6.35;;;;;;;;;;4959643;29;20625;-75
2023/05/24 05:39:48;;;;;;;22.10;7.25;;;;;;;;;;4959650;29;20181;-75
2023/05/24 05:42:14;;;;;;;20.02;6.95;;;;;;;;;;4959518;28;20184;-75
2023/05/24 05:44:40;;;;;;;42.10;8.40;;;;;;;;;;4963447;29;20223;-75
2023/05/24 05:47:08;;;;;;;18.15;6.68;;;;;;;;;;4963800;29;20210;-75
2023/05/24 05:49:37;;;;;;;20.17;8.68;;;;;;;;;;4963834;29;20240;-75
2023/05/24 05:52:04;;;;;;;19.83;6.35;;;;;;;;;;4963387;29;20196;-75
2023/05/24 05:54:30;;;;;;;25.10;7.80;;;;;;;;;;4964018;29;20199;-75
2023/05/24 05:56:56;;;;;;;21.58;7.40;;;;;;;;;;4963546;29;20178;-75
2023/05/24 05:59:22;;;;;;;15.32;7.15;;;;;;;;;;4963495;29;20169;-75
2023/05/24 06:01:48;;;;;;;18.25;7.32;;;;;;;;;;4963194;29;20588;-75
2023/05/24 06:04:15;;;;;;;18.13;7.35;;;;;;;;;;4963023;29;20268;-75
2023/05/24 06:06:43;;;;;;;21.30;7.22;;;;;;;;;;4963141;29;20204;-75
2023/05/24 06:09:09;;;;;;;20.10;7.43;;;;;;;;;;4962843;29;20570;-75
2023/05/24 06:11:35;;;;;;;24.05;7.70;;;;;;;;;;4962832;29;20177;-75
2023/05/24 06:14:01;;;;;;;21.42;6.10;;;;;;;;;;4962976;29;20587;-75
2023/05/24 06:16:27;;;;;;;25.55;9.38;;;;;;;;;;4963022;29;20227;-75
2023/05/24 06:18:53;;;;;;;25.77;7.88;;;;;;;;;;4962916;29;20377;-75
2023/05/24 06:21:20;;;;;;;19.05;7.68;;;;;;;;;;4963021;29;20172;-75
2023/05/24 06:23:46;;;;;;;21.15;7.53;;;;;;;;;;4963153;29;20645;-75
2023/05/24 06:26:12;;;;;;;23.15;8.60;;;;;;;;;;4963315;29;20300;-75
2023/05/24 06:28:38;;;;;;;25.63;7.18;;;;;;;;;;4962815;29;20255;-75
2023/05/24 06:31:04;;;;;;;20.83;6.97;;;;;;;;;;4963045;29;20260;-75
2023/05/24 06:33:31;;;;;;;26.75;6.80;;;;;;;;;;4962321;29;20258;-75
2023/05/24 06:35:57;;;;;;;19.25;6.93;;;;;;;;;;4962597;29;20180;-76
2023/05/24 06:38:23;;;;;;;29.23;8.10;;;;;;;;;;4962218;29;20175;-75
2023/05/24 06:40:49;;;;;;;22.10;7.25;;;;;;;;;;4962317;29;20180;-75
2023/05/24 06:43:16;;;;;;;29.63;7.28;;;;;;;;;;4962123;29;20169;-75
2023/05/24 06:45:42;;;;;;;27.05;7.28;;;;;;;;;;4962478;29;20180;-75
2023/05/24 06:48:08;;;;;;;20.13;7.82;;;;;;;;;;4961854;29;20581;-75
2023/05/24 06:50:35;;;;;;;20.60;7.35;;;;;;;;;;4961941;29;20235;-75
2023/05/24 06:53:01;;;;;;;24.05;7.40;;;;;;;;;;4962085;29;20524;-76
2023/05/24 06:55:28;;;;;;;21.20;7.97;;;;;;;;;;4960929;28;20775;-75
2023/05/24 06:57:54;;;;;;;31.88;9.32;;;;;;;;;;4961636;29;20188;-76
2023/05/24 07:00:21;;;;;;;24.95;8.10;;;;;;;;;;4962012;29;20232;-76
2023/05/24 07:02:47;;;;;;;30.13;8.55;;;;;;;;;;4961917;29;20185;-75
2023/05/24 07:05:13;;;;;;;31.80;9.38;;;;;;;;;;4960985;29;20188;-76
2023/05/24 07:07:40;;;;;;;26.67;8.68;;;;;;;;;;4961361;29;20207;-76
2023/05/24 07:10:09;;;;;;;20.48;8.20;;;;;;;;;;4961082;29;20256;-76
2023/05/24 07:12:35;;;;;;;19.50;7.88;;;;;;;;;;4962014;29;20169;-76
2023/05/24 07:15:01;;;;;;;20.93;8.57;;;;;;;;;;4961215;29;20193;-76
2023/05/24 07:17:27;;;;;;;21.95;7.35;;;;;;;;;;4961841;29;20768;-75
2023/05/24 07:19:53;;;;;;;15.48;6.72;;;;;;;;;;4960965;29;20184;-75
2023/05/24 07:22:20;;;;;;;16.80;6.10;;;;;;;;;;4961501;29;20180;-75
2023/05/24 07:24:46;;;;;;;20.48;7.40;;;;;;;;;;4961121;29;20916;-76
2023/05/24 07:27:12;;;;;;;25.63;7.07;;;;;;;;;;4960805;29;20216;-76
2023/05/24 07:29:38;;;;;;;14.90;5.87;;;;;;;;;;4960796;29;20408;-75
2023/05/24 07:32:05;;;;;;;13.37;5.53;;;;;;;;;;4960769;29;20401;-76
2023/05/24 07:34:31;;;;;;;17.87;5.97;;;;;;;;;;4960508;29;20550;-76
2023/05/24 07:36:59;;;;;;;17.40;6.10;;;;;;;;;;4942773;29;20525;-76
2023/05/24 07:39:26;;;;;;;15.20;5.97;;;;;;;;;;4960114;29;20413;-76
2023/05/24 07:41:52;;;;;;;17.47;5.50;;;;;;;;;;4960314;29;20442;-76
2023/05/24 07:44:18;;;;;;;16.60;4.90;;;;;;;;;;4960245;29;20956;-76
2023/05/24 07:46:45;;;;;;;13.97;5.50;;;;;;;;;;4960656;29;20460;-76
2023/05/24 07:49:11;;;;;;;15.48;5.72;;;;;;;;;;4959843;29;20427;-76
2023/05/24 07:51:37;;;;;;;19.33;6.27;;;;;;;;;;4960114;29;20392;-76
2023/05/24 07:54:03;;;;;;;12.97;5.63;;;;;;;;;;4960189;29;20507;-76
2023/05/24 07:56:30;;;;;;;10.17;5.53;;;;;;;;;;4960308;29;20409;-76
2023/05/24 07:59:02;;;;;;;17.57;5.67;;;;;;;;;;4960135;29;20451;-76
2023/05/24 08:01:28;;;;;;;16.43;5.97;;;;;;;;;;4959616;29;20813;-76
2023/05/24 08:03:55;;;;;;;18.67;5.90;;;;;;;;;;4959627;29;20412;-76
2023/05/24 08:06:21;;;;;;;12.07;5.20;;;;;;;;;;4959435;28;20468;-76
2023/05/24 08:08:47;;;;;;;13.17;4.40;;;;;;;;;;4960207;29;20397;-76
2023/05/24 08:11:13;;;;;;;13.30;4.33;;;;;;;;;;4959576;29;20405;-76
2023/05/24 08:13:39;;;;;;;14.53;5.10;;;;;;;;;;4959286;29;20474;-76
2023/05/24 08:16:05;;;;;;;13.23;6.10;;;;;;;;;;4959275;29;20413;-76
2023/05/24 08:18:32;;;;;;;13.37;4.60;;;;;;;;;;4959927;29;20889;-75
2023/05/24 08:20:58;;;;;;;13.23;6.53;;;;;;;;;;4959455;29;20409;-76
2023/05/24 08:23:24;;;;;;;15.87;4.40;;;;;;;;;;4959193;29;20383;-76
2023/05/24 08:25:50;;;;;;;14.07;4.90;;;;;;;;;;4959713;29;20464;-76
2023/05/24 08:28:16;;;;;;;9.77;4.73;;;;;;;;;;4958800;29;20408;-76
2023/05/24 08:30:42;;;;;;;12.40;3.90;;;;;;;;;;4959119;29;20705;-76
2023/05/24 08:33:08;;;;;;;14.00;4.13;;;;;;;;;;4958607;29;20412;-76
2023/05/24 08:35:34;;;;;;;14.07;3.67;;;;;;;;;;4958982;29;20401;-76
2023/05/24 08:38:00;;;;;;;12.47;4.47;;;;;;;;;;4959203;29;20479;-76
2023/05/24 08:40:27;;;;;;;9.97;3.70;;;;;;;;;;4959748;29;20435;-76
2023/05/24 08:42:53;;;;;;;9.97;4.07;;;;;;;;;;4959218;29;20383;-76
2023/05/24 08:45:20;;;;;;;11.43;3.97;;;;;;;;;;4959266;29;20428;-76
2023/05/24 08:47:47;;;;;;;11.43;4.23;;;;;;;;;;4959305;29;20471;-76
2023/05/24 08:50:13;;;;;;;16.03;5.17;;;;;;;;;;4959249;29;20528;-77
2023/05/24 08:52:39;;;;;;;10.70;4.00;;;;;;;;;;4959030;29;20404;-76
2023/05/24 08:55:06;;;;;;;13.83;3.80;;;;;;;;;;4958837;29;20401;-76
2023/05/24 08:57:34;;;;;;;15.53;4.30;;;;;;;;;;4958834;29;20448;-76
2023/05/24 09:00:00;;;;;;;13.73;3.93;;;;;;;;;;4959444;29;20404;-76
2023/05/24 09:02:27;;;;;;;12.00;4.87;;;;;;;;;;4959146;29;20416;-76
2023/05/24 09:04:53;;;;;;;17.40;3.97;;;;;;;;;;4959194;29;20805;-76
2023/05/24 09:07:24;;;;;;;17.27;3.83;;;;;;;;;;4958788;29;20456;-76
2023/05/24 09:09:56;;;;;;;16.13;4.10;;;;;;;;;;4959265;29;20386;-76
2023/05/24 09:12:22;;;;;;;23.87;4.47;;;;;;;;;;4958592;29;20415;-77
2023/05/24 09:14:49;;;;;;;14.30;4.20;;;;;;;;;;4958799;29;20443;-76
2023/05/24 09:17:15;;;;;;;13.97;4.23;;;;;;;;;;4958592;28;20464;-76
2023/05/24 09:19:48;;;;;;;11.50;3.60;;;;;;;;;;4962643;29;20424;-76
2023/05/24 09:22:14;;;;;;;13.00;3.93;;;;;;;;;;4962227;29;20479;-77
2023/05/24 09:24:41;;;;;;;13.10;3.87;;;;;;;;;;4963166;29;20435;-76
2023/05/24 09:27:07;;;;;;;12.13;4.50;;;;;;;;;;4962530;29;20448;-77
2023/05/24 09:29:36;;;;;;;9.20;3.70;;;;;;;;;;4962325;29;20483;-77
2023/05/24 09:32:06;;;;;;;13.67;5.70;;;;;;;;;;4962852;29;20934;-77
2023/05/24 09:34:38;;;;;;;12.07;3.80;;;;;;;;;;4962658;29;20412;-76
2023/05/24 09:37:05;;;;;;;19.90;3.97;;;;;;;;;;4962299;29;20460;-76
2023/05/24 09:39:32;;;;;;;15.37;4.50;;;;;;;;;;4962731;29;20494;-76
2023/05/24 09:41:58;;;;;;;6.77;3.10;;;;;;;;;;4962612;29;20412;-77
2023/05/24 09:44:26;;;;;;;12.47;4.00;;;;;;;;;;4961987;29;20413;-76
2023/05/24 09:46:52;;;;;;;14.90;4.07;;;;;;;;;;4962655;29;20460;-76
2023/05/24 09:49:20;;;;;;;19.90;5.03;;;;;;;;;;4961913;29;20467;-76
2023/05/24 09:51:47;;;;;;;11.97;4.67;;;;;;;;;;4962650;29;20452;-76
2023/05/24 09:54:13;;;;;;;15.07;4.63;;;;;;;;;;4961660;29;20762;-76
2023/05/24 09:56:39;;;;;;;18.60;5.37;;;;;;;;;;4961800;29;20413;-76
2023/05/24 09:59:09;;;;;;;14.70;4.13;;;;;;;;;;4961274;29;20730;-77
2023/05/24 10:01:36;;;;;;;22.80;5.30;;;;;;;;;;4961773;29;20413;-76
2023/05/24 10:04:05;;;;;;;15.57;5.30;;;;;;;;;;4961724;29;20404;-76
2023/05/24 10:06:35;;;;;;;19.70;5.10;;;;;;;;;;4961583;29;20487;-76
2023/05/24 10:09:04;;;;;;;13.43;4.40;;;;;;;;;;4962509;29;20413;-76
2023/05/24 10:11:30;;;;;;;15.13;5.20;;;;;;;;;;4962300;29;20407;-76
2023/05/24 10:13:56;;;;;;;15.07;4.30;;;;;;;;;;4961586;29;20401;-76
2023/05/24 10:16:22;;;;;;;10.17;4.47;;;;;;;;;;4961302;29;20400;-77
2023/05/24 10:18:49;;;;;;;18.47;5.17;;;;;;;;;;4962093;29;20408;-76
2023/05/24 10:21:17;;;;;;;10.00;4.47;;;;;;;;;;4944150;29;20513;-77
2023/05/24 10:23:43;;;;;;;14.03;5.50;;;;;;;;;;4961739;29;20602;-77
2023/05/24 10:26:10;;;;;;;13.13;5.70;;;;;;;;;;4961169;29;20408;-77
2023/05/24 10:28:38;;;;;;;16.20;4.77;;;;;;;;;;4961081;28;20483;-77
2023/05/24 10:31:06;;;;;;;11.60;4.27;;;;;;;;;;4961135;29;20727;-77
2023/05/24 10:33:34;;;;;;;16.07;4.10;;;;;;;;;;4961234;29;20413;-77
2023/05/24 10:36:02;;;;;;;14.57;4.40;;;;;;;;;;4961123;29;20415;-77
2023/05/24 10:38:29;;;;;;;19.90;5.23;;;;;;;;;;4960846;29;20408;-77
2023/05/24 10:40:55;;;;;;;16.63;4.30;;;;;;;;;;4961297;29;20424;-77
2023/05/24 10:43:22;;;;;;;10.50;3.80;;;;;;;;;;4960830;29;20420;-76
2023/05/24 10:45:48;;;;;;;16.17;6.67;;;;;;;;;;4961062;29;20435;-77
2023/05/24 10:48:15;;;;;;;15.93;4.30;;;;;;;;;;4960170;29;20827;-77
2023/05/24 10:50:42;;;;;;;15.87;4.63;;;;;;;;;;4960923;29;20539;-77
2023/05/24 10:53:11;;;;;;;15.97;5.47;;;;;;;;;;4960882;29;20424;-78
2023/05/24 10:55:51;;;;;;;15.33;4.73;;;;;;;;;;4961082;29;20748;-77
2023/05/24 10:58:17;;;;;;;15.37;4.53;;;;;;;;;;4961159;29;20439;-77
2023/05/24 11:00:44;;;;;;;13.17;5.20;;;;;;;;;;4960290;29;20504;-77
2023/05/24 11:03:11;;;;;;;12.40;4.00;;;;;;;;;;4959925;29;20877;-77
2023/05/24 11:05:49;;;;;;;15.60;4.77;;;;;;;;;;4960862;29;20495;-77
2023/05/24 11:08:45;;;;;;;12.90;4.70;;;;;;;;;;4960369;29;20515;-77
2023/05/24 11:11:12;;;;;;;9.87;3.83;;;;;;;;;;4952023;29;20515;-77
2023/05/24 11:13:39;;;;;;;13.47;5.10;;;;;;;;;;4960295;29;20403;-77
2023/05/24 11:16:05;;;;;;;14.00;3.83;;;;;;;;;;4960599;29;20397;-77
2023/05/24 11:18:32;;;;;;;12.30;3.40;;;;;;;;;;4959755;29;20409;-76
2023/05/24 11:21:02;;;;;;;10.53;3.93;;;;;;;;;;4959947;29;20420;-77
2023/05/24 11:23:30;;;;;;;14.03;4.10;;;;;;;;;;4959909;29;20417;-76
2023/05/24 11:25:56;;;;;;;10.53;3.80;;;;;;;;;;4960701;29;20794;-77
2023/05/24 11:28:23;;;;;;;10.70;4.13;;;;;;;;;;4959975;29;20474;-77
2023/05/24 11:30:49;;;;;;;17.03;4.70;;;;;;;;;;4960096;29;20391;-76
2023/05/24 11:33:19;;;;;;;13.80;4.30;;;;;;;;;;4959772;29;20439;-77
2023/05/24 11:35:45;;;;;;;9.70;4.40;;;;;;;;;;4959699;29;20427;-77
2023/05/24 11:38:12;;;;;;;10.20;4.10;;;;;;;;;;4959935;29;20504;-78
2023/05/24 11:40:48;;;;;;;15.57;5.00;;;;;;;;;;4959206;28;20432;-77
2023/05/24 11:43:18;;;;;;;11.67;4.30;;;;;;;;;;4959895;29;20878;-77
2023/05/24 11:45:45;;;;;;;10.27;3.67;;;;;;;;;;4959867;29;20455;-77
2023/05/24 11:48:11;;;;;;;10.73;4.30;;;;;;;;;;4959341;29;20460;-77
2023/05/24 11:50:44;;;;;;;18.37;4.90;;;;;;;;;;4960015;29;20471;-76
2023/05/24 11:53:11;;;;;;;8.53;4.43;;;;;;;;;;4959717;29;20404;-77
2023/05/24 11:55:38;;;;;;;8.90;3.73;;;;;;;;;;4959333;29;20389;-77
2023/05/24 11:58:06;;;;;;;8.10;4.10;;;;;;;;;;4959640;29;20408;-77
2023/05/24 12:00:32;;;;;;;10.93;3.50;;;;;;;;;;4959546;29;20379;-77
2023/05/24 12:03:01;;;;;;;8.40;3.50;;;;;;;;;;4959566;29;20747;-77
2023/05/24 12:05:30;;;;;;;9.80;4.57;;;;;;;;;;4959143;29;20965;-77
2023/05/24 12:08:06;;;;;;;10.63;4.90;;;;;;;;;;4959022;29;20439;-76
2023/05/24 12:10:36;;;;;;;7.80;4.30;;;;;;;;;;4959477;29;20405;-77
2023/05/24 12:13:07;;;;;;;10.37;4.30;;;;;;;;;;4959369;29;20398;-77
2023/05/24 12:15:33;;;;;;;15.00;4.90;;;;;;;;;;4958673;29;20515;-77
2023/05/24 12:17:59;;;;;;;14.57;4.67;;;;;;;;;;4959212;29;20413;-76
2023/05/24 12:20:29;;;;;;;14.03;4.50;;;;;;;;;;4958891;29;20420;-76
2023/05/24 12:22:55;;;;;;;11.90;4.50;;;;;;;;;;4959165;29;20407;-77
2023/05/24 12:25:22;;;;;;;12.27;4.17;;;;;;;;;;4958493;29;20416;-77
2023/05/24 12:27:55;;;;;;;12.30;4.03;;;;;;;;;;4959011;29;20435;-77
2023/05/24 12:30:24;;;;;;;11.57;5.60;;;;;;;;;;4958377;29;20556;-77
2023/05/24 12:32:52;;;;;;;13.33;5.03;;;;;;;;;;4958930;29;20729;-77
2023/05/24 12:35:18;;;;;;;8.63;3.70;;;;;;;;;;4941379;29;20942;-77
2023/05/24 12:37:44;;;;;;;11.17;4.53;;;;;;;;;;4958453;29;20400;-77
2023/05/24 12:40:20;;;;;;;11.57;4.03;;;;;;;;;;4958651;29;20436;-77
2023/05/24 12:42:50;;;;;;;8.87;3.90;;;;;;;;;;4958476;29;20751;-77
2023/05/24 12:45:21;;;;;;;11.30;4.20;;;;;;;;;;4958038;29;20413;-77
2023/05/24 12:47:48;;;;;;;19.40;3.90;;;;;;;;;;4958250;29;20471;-77
2023/05/24 12:50:15;;;;;;;9.53;4.17;;;;;;;;;;4958354;29;20460;-77
2023/05/24 12:52:43;;;;;;;10.67;3.50;;;;;;;;;;4957397;28;20417;-77
2023/05/24 12:55:09;;;;;;;13.70;3.80;;;;;;;;;;4958413;29;20408;-77
2023/05/24 12:57:35;;;;;;;10.57;2.93;;;;;;;;;;4958307;29;20896;-77
2023/05/24 13:00:03;;;;;;;9.40;3.83;;;;;;;;;;4958325;29;20417;-77
2023/05/24 13:02:30;;;;;;;6.93;2.87;;;;;;;;;;4958394;29;20803;-77
2023/05/24 13:04:56;;;;;;;10.13;3.63;;;;;;;;;;4958548;29;20417;-77
2023/05/24 13:07:22;;;;;;;8.03;2.70;;;;;;;;;;4957904;29;20472;-77
2023/05/24 13:09:48;;;;;;;10.53;3.80;;;;;;;;;;4958102;29;20511;-77
2023/05/24 13:12:14;;;;;;;6.83;3.50;;;;;;;;;;4958062;29;20443;-77
2023/05/24 13:14:40;;;;;;;12.37;4.03;;;;;;;;;;4958251;29;20404;-77
2023/05/24 13:17:06;;;;;;;9.27;3.53;;;;;;;;;;4958421;29;20884;-76
2023/05/24 13:19:33;;;;;;;11.60;3.47;;;;;;;;;;4958422;29;20428;-77
2023/05/24 13:21:59;;;;;;;9.67;3.30;;;;;;;;;;4958276;29;20409;-76
2023/05/24 13:24:26;;;;;;;15.60;4.70;;;;;;;;;;4957519;29;20436;-77
2023/05/24 13:26:52;;;;;;;8.30;4.30;;;;;;;;;;4957952;29;20474;-77
2023/05/24 13:29:18;;;;;;;13.27;5.00;;;;;;;;;;4957588;29;20462;-78
2023/05/24 13:31:44;;;;;;;13.50;7.33;;;;;;;;;;4958271;29;20408;-77
2023/05/24 13:34:10;;;;;;;10.23;6.20;;;;;;;;;;4957842;29;20401;-77
2023/05/24 13:36:39;;;;;;;6.80;4.30;;;;;;;;;;4957687;29;20386;-77
2023/05/24 13:39:08;;;;;;;9.00;3.63;;;;;;;;;;4957630;29;20409;-77
2023/05/24 13:41:34;;;;;;;15.23;4.23;;;;;;;;;;4957773;29;20412;-77
2023/05/24 13:44:00;;;;;;;9.93;4.10;;;;;;;;;;4958066;29;20403;-77
2023/05/24 13:46:27;;;;;;;13.40;5.13;;;;;;;;;;4957199;29;20511;-77
2023/05/24 13:48:54;;;;;;;13.53;4.87;;;;;;;;;;4957692;29;20419;-77
2023/05/24 13:51:21;;;;;;;10.50;5.70;;;;;;;;;;4956783;29;20456;-77
2023/05/24 13:53:48;;;;;;;12.00;6.23;;;;;;;;;;4957724;29;20746;-77
2023/05/24 13:56:14;;;;;;;13.27;6.30;;;;;;;;;;4957581;29;20413;-77
2023/05/24 13:58:40;;;;;;;12.80;6.90;;;;;;;;;;4957190;29;20408;-77
2023/05/24 14:01:07;;;;;;;12.73;8.00;;;;;;;;;;4957957;29;20412;-74
2023/05/24 14:03:33;;;;;;;12.50;7.77;;;;;;;;;;4958111;28;20408;-77
2023/05/24 14:06:00;;;;;;;13.10;8.70;;;;;;;;;;4961303;29;20760;-77
2023/05/24 14:08:26;;;;;;;12.13;8.20;;;;;;;;;;4961102;29;20412;-77
2023/05/24 14:10:52;;;;;;;13.30;9.07;;;;;;;;;;4961165;29;20415;-77
2023/05/24 14:13:18;;;;;;;25.90;8.63;;;;;;;;;;4961082;29;20500;-77
2023/05/24 14:15:45;;;;;;;14.13;7.67;;;;;;;;;;4943484;29;21033;-77
2023/05/24 14:18:11;;;;;;;9.33;6.10;;;;;;;;;;4961378;29;20520;-77
2023/05/24 14:20:39;;;;;;;11.93;6.07;;;;;;;;;;4960549;29;20400;-77
2023/05/24 14:23:08;;;;;;;11.30;5.57;;;;;;;;;;4960224;29;20402;-77
2023/05/24 14:25:34;;;;;;;10.23;5.47;;;;;;;;;;4960441;29;20416;-77
2023/05/24 14:28:02;;;;;;;11.33;5.73;;;;;;;;;;4960671;29;20537;-77
2023/05/24 14:30:28;;;;;;;9.90;5.00;;;;;;;;;;4959964;29;20766;-77
2023/05/24 14:32:54;;;;;;;13.43;5.93;;;;;;;;;;4960372;29;20424;-76